sensor_id;sensor_type;location;lat;lon;timestamp;temperature;humidity
54202;DHT22;40108;53.152;5.844;2023-02-18T00:01:44;7.10;92.70
54202;DHT22;40108;53.152;5.844;2023-02-18T00:04:10;7.10;92.80
54202;DHT22;40108;53.152;5.844;2023-02-18T00:06:39;7.10;92.80
54202;DHT22;40108;53.152;5.844;2023-02-18T00:09:13;7.20;92.80
54202;DHT22;40108;53.152;5.844;2023-02-18T00:11:41;7.20;92.80
54202;DHT22;40108;53.152;5.844;2023-02-18T00:14:12;7.20;92.90
54202;DHT22;40108;53.152;5.844;2023-02-18T00:16:49;7.20;92.90
54202;DHT22;40108;53.152;5.844;2023-02-18T00:19:20;7.20;93.00
54202;DHT22;40108;53.152;5.844;2023-02-18T00:21:56;7.20;93.00
54202;DHT22;40108;53.152;5.844;2023-02-18T00:24:26;7.20;93.00
54202;DHT22;40108;53.152;5.844;2023-02-18T00:26:52;7.20;93.00
54202;DHT22;40108;53.152;5.844;2023-02-18T00:29:19;7.20;93.10
54202;DHT22;40108;53.152;5.844;2023-02-18T00:31:45;7.20;93.10
54202;DHT22;40108;53.152;5.844;2023-02-18T00:34:13;7.20;93.20
54202;DHT22;40108;53.152;5.844;2023-02-18T00:36:52;7.20;93.20
54202;DHT22;40108;53.152;5.844;2023-02-18T00:39:17;7.20;93.30
54202;DHT22;40108;53.152;5.844;2023-02-18T00:41:44;7.20;93.30
54202;DHT22;40108;53.152;5.844;2023-02-18T00:44:13;7.10;93.30
54202;DHT22;40108;53.152;5.844;2023-02-18T00:46:49;7.20;93.30
54202;DHT22;40108;53.152;5.844;2023-02-18T00:49:20;7.20;93.40
54202;DHT22;40108;53.152;5.844;2023-02-18T00:51:48;7.20;93.40
54202;DHT22;40108;53.152;5.844;2023-02-18T00:54:17;7.20;93.40
54202;DHT22;40108;53.152;5.844;2023-02-18T00:56:42;7.20;93.50
54202;DHT22;40108;53.152;5.844;2023-02-18T00:59:11;7.20;93.60
54202;DHT22;40108;53.152;5.844;2023-02-18T01:01:42;7.20;93.60
54202;DHT22;40108;53.152;5.844;2023-02-18T01:04:10;7.20;93.70
54202;DHT22;40108;53.152;5.844;2023-02-18T01:06:39;7.30;93.70
54202;DHT22;40108;53.152;5.844;2023-02-18T01:09:05;7.30;93.80
54202;DHT22;40108;53.152;5.844;2023-02-18T01:11:33;7.30;93.90
54202;DHT22;40108;53.152;5.844;2023-02-18T01:13:59;7.30;93.90
54202;DHT22;40108;53.152;5.844;2023-02-18T01:16:25;7.40;93.90
54202;DHT22;40108;53.152;5.844;2023-02-18T01:18:51;7.40;93.90
54202;DHT22;40108;53.152;5.844;2023-02-18T01:21:17;7.40;93.90
54202;DHT22;40108;53.152;5.844;2023-02-18T01:23:43;7.40;93.90
54202;DHT22;40108;53.152;5.844;2023-02-18T01:26:10;7.50;93.90
54202;DHT22;40108;53.152;5.844;2023-02-18T01:28:37;7.50;94.00
54202;DHT22;40108;53.152;5.844;2023-02-18T01:31:11;7.50;93.90
54202;DHT22;40108;53.152;5.844;2023-02-18T01:33:38;7.50;93.90
54202;DHT22;40108;53.152;5.844;2023-02-18T01:36:08;7.50;94.00
54202;DHT22;40108;53.152;5.844;2023-02-18T01:38:37;7.50;94.00
54202;DHT22;40108;53.152;5.844;2023-02-18T01:41:04;7.50;94.00
54202;DHT22;40108;53.152;5.844;2023-02-18T01:43:30;7.50;94.00
54202;DHT22;40108;53.152;5.844;2023-02-18T01:46:16;7.50;94.00
54202;DHT22;40108;53.152;5.844;2023-02-18T01:48:54;7.50;94.00
54202;DHT22;40108;53.152;5.844;2023-02-18T01:51:28;7.60;94.00
54202;DHT22;40108;53.152;5.844;2023-02-18T01:54:05;7.50;94.00
54202;DHT22;40108;53.152;5.844;2023-02-18T01:56:44;7.50;94.00
54202;DHT22;40108;53.152;5.844;2023-02-18T01:59:23;7.50;94.00
54202;DHT22;40108;53.152;5.844;2023-02-18T02:01:50;7.50;94.10
54202;DHT22;40108;53.152;5.844;2023-02-18T02:04:18;7.60;94.10
54202;DHT22;40108;53.152;5.844;2023-02-18T02:06:54;7.60;94.10
54202;DHT22;40108;53.152;5.844;2023-02-18T02:09:21;7.60;94.10
54202;DHT22;40108;53.152;5.844;2023-02-18T02:15:33;7.50;94.10
54202;DHT22;40108;53.152;5.844;2023-02-18T02:18:16;7.50;94.10
54202;DHT22;40108;53.152;5.844;2023-02-18T02:36:21;7.50;94.20
54202;DHT22;40108;53.152;5.844;2023-02-18T02:41:42;7.50;94.20
54202;DHT22;40108;53.152;5.844;2023-02-18T02:52:45;7.60;94.40
54202;DHT22;40108;53.152;5.844;2023-02-18T02:55:20;7.60;94.40
54202;DHT22;40108;53.152;5.844;2023-02-18T02:57:55;7.70;94.40
54202;DHT22;40108;53.152;5.844;2023-02-18T03:01:11;7.70;94.30
54202;DHT22;40108;53.152;5.844;2023-02-18T03:14:55;7.80;94.10
54202;DHT22;40108;53.152;5.844;2023-02-18T03:17:32;7.80;94.10
54202;DHT22;40108;53.152;5.844;2023-02-18T03:20:22;7.80;94.10
54202;DHT22;40108;53.152;5.844;2023-02-18T03:22:51;7.90;94.10
54202;DHT22;40108;53.152;5.844;2023-02-18T03:25:20;7.90;94.10
54202;DHT22;40108;53.152;5.844;2023-02-18T03:27:54;7.90;94.10
54202;DHT22;40108;53.152;5.844;2023-02-18T03:30:36;7.90;94.10
54202;DHT22;40108;53.152;5.844;2023-02-18T03:33:07;8.00;94.10
54202;DHT22;40108;53.152;5.844;2023-02-18T03:35:35;8.00;94.10
54202;DHT22;40108;53.152;5.844;2023-02-18T03:38:16;8.00;94.10
54202;DHT22;40108;53.152;5.844;2023-02-18T03:40:46;8.00;94.10
54202;DHT22;40108;53.152;5.844;2023-02-18T03:43:14;8.00;94.10
54202;DHT22;40108;53.152;5.844;2023-02-18T03:45:41;8.00;94.10
54202;DHT22;40108;53.152;5.844;2023-02-18T03:48:09;8.00;94.10
54202;DHT22;40108;53.152;5.844;2023-02-18T03:50:37;8.00;94.10
54202;DHT22;40108;53.152;5.844;2023-02-18T03:53:10;8.00;94.10
54202;DHT22;40108;53.152;5.844;2023-02-18T03:55:36;8.10;94.20
54202;DHT22;40108;53.152;5.844;2023-02-18T03:58:02;8.00;94.30
54202;DHT22;40108;53.152;5.844;2023-02-18T04:00:30;8.00;94.30
54202;DHT22;40108;53.152;5.844;2023-02-18T04:02:59;8.10;94.40
54202;DHT22;40108;53.152;5.844;2023-02-18T04:05:24;8.10;94.50
54202;DHT22;40108;53.152;5.844;2023-02-18T04:07:50;8.00;94.50
54202;DHT22;40108;53.152;5.844;2023-02-18T04:10:19;8.10;94.60
54202;DHT22;40108;53.152;5.844;2023-02-18T04:12:47;8.00;94.60
54202;DHT22;40108;53.152;5.844;2023-02-18T04:15:13;8.10;94.70
54202;DHT22;40108;53.152;5.844;2023-02-18T04:17:39;8.10;94.80
54202;DHT22;40108;53.152;5.844;2023-02-18T04:20:08;8.10;94.90
54202;DHT22;40108;53.152;5.844;2023-02-18T04:22:34;8.10;95.00
54202;DHT22;40108;53.152;5.844;2023-02-18T04:25:13;8.10;95.10
54202;DHT22;40108;53.152;5.844;2023-02-18T04:27:39;8.10;95.10
54202;DHT22;40108;53.152;5.844;2023-02-18T04:30:13;8.10;95.30
54202;DHT22;40108;53.152;5.844;2023-02-18T04:32:43;8.20;95.30
54202;DHT22;40108;53.152;5.844;2023-02-18T04:35:12;8.20;95.40
54202;DHT22;40108;53.152;5.844;2023-02-18T04:37:40;8.20;95.40
54202;DHT22;40108;53.152;5.844;2023-02-18T04:40:06;8.20;95.50
54202;DHT22;40108;53.152;5.844;2023-02-18T04:42:35;8.20;95.60
54202;DHT22;40108;53.152;5.844;2023-02-18T04:45:04;8.20;95.70
54202;DHT22;40108;53.152;5.844;2023-02-18T04:47:33;8.20;95.90
54202;DHT22;40108;53.152;5.844;2023-02-18T04:50:24;8.20;95.90
54202;DHT22;40108;53.152;5.844;2023-02-18T04:53:00;8.20;95.90
54202;DHT22;40108;53.152;5.844;2023-02-18T04:55:29;8.20;96.10
54202;DHT22;40108;53.152;5.844;2023-02-18T04:58:15;8.20;96.10
54202;DHT22;40108;53.152;5.844;2023-02-18T05:00:51;8.20;96.10
54202;DHT22;40108;53.152;5.844;2023-02-18T05:03:19;8.20;96.20
54202;DHT22;40108;53.152;5.844;2023-02-18T05:05:47;8.20;96.30
54202;DHT22;40108;53.152;5.844;2023-02-18T05:08:18;8.20;96.50
54202;DHT22;40108;53.152;5.844;2023-02-18T05:10:44;8.20;96.50
54202;DHT22;40108;53.152;5.844;2023-02-18T05:13:10;8.20;96.60
54202;DHT22;40108;53.152;5.844;2023-02-18T05:15:39;8.20;96.70
54202;DHT22;40108;53.152;5.844;2023-02-18T05:18:07;8.20;96.80
54202;DHT22;40108;53.152;5.844;2023-02-18T05:20:33;8.20;96.90
54202;DHT22;40108;53.152;5.844;2023-02-18T05:22:59;8.20;97.00
54202;DHT22;40108;53.152;5.844;2023-02-18T05:25:27;8.30;97.20
54202;DHT22;40108;53.152;5.844;2023-02-18T05:27:53;8.30;97.30
54202;DHT22;40108;53.152;5.844;2023-02-18T05:30:19;8.30;97.50
54202;DHT22;40108;53.152;5.844;2023-02-18T05:32:45;8.40;97.60
54202;DHT22;40108;53.152;5.844;2023-02-18T05:35:11;8.40;97.60
54202;DHT22;40108;53.152;5.844;2023-02-18T05:37:38;8.50;97.60
54202;DHT22;40108;53.152;5.844;2023-02-18T05:40:05;8.50;97.60
54202;DHT22;40108;53.152;5.844;2023-02-18T05:42:31;8.50;97.60
54202;DHT22;40108;53.152;5.844;2023-02-18T05:45:03;8.60;97.80
54202;DHT22;40108;53.152;5.844;2023-02-18T05:47:29;8.70;97.80
54202;DHT22;40108;53.152;5.844;2023-02-18T05:49:54;8.70;97.80
54202;DHT22;40108;53.152;5.844;2023-02-18T05:52:21;8.70;97.80
54202;DHT22;40108;53.152;5.844;2023-02-18T05:54:49;8.80;97.80
54202;DHT22;40108;53.152;5.844;2023-02-18T05:57:17;8.80;97.90
54202;DHT22;40108;53.152;5.844;2023-02-18T05:59:52;8.80;97.90
54202;DHT22;40108;53.152;5.844;2023-02-18T06:02:21;8.90;97.90
54202;DHT22;40108;53.152;5.844;2023-02-18T06:04:47;8.90;98.00
54202;DHT22;40108;53.152;5.844;2023-02-18T06:07:16;8.90;98.00
54202;DHT22;40108;53.152;5.844;2023-02-18T06:10:03;9.10;98.10
54202;DHT22;40108;53.152;5.844;2023-02-18T06:12:32;9.10;98.00
54202;DHT22;40108;53.152;5.844;2023-02-18T06:15:00;9.10;98.00
54202;DHT22;40108;53.152;5.844;2023-02-18T06:17:26;9.10;98.10
54202;DHT22;40108;53.152;5.844;2023-02-18T06:20:01;9.20;98.10
54202;DHT22;40108;53.152;5.844;2023-02-18T06:22:28;9.20;98.10
54202;DHT22;40108;53.152;5.844;2023-02-18T06:25:02;9.20;98.10
54202;DHT22;40108;53.152;5.844;2023-02-18T06:27:36;9.20;98.10
54202;DHT22;40108;53.152;5.844;2023-02-18T06:30:11;9.30;98.10
54202;DHT22;40108;53.152;5.844;2023-02-18T06:32:39;9.40;98.10
54202;DHT22;40108;53.152;5.844;2023-02-18T06:35:08;9.30;98.10
54202;DHT22;40108;53.152;5.844;2023-02-18T06:37:34;9.40;98.10
54202;DHT22;40108;53.152;5.844;2023-02-18T06:40:02;9.40;98.10
54202;DHT22;40108;53.152;5.844;2023-02-18T06:42:38;9.40;98.10
54202;DHT22;40108;53.152;5.844;2023-02-18T06:45:10;9.50;98.10
54202;DHT22;40108;53.152;5.844;2023-02-18T06:47:38;9.50;98.10
54202;DHT22;40108;53.152;5.844;2023-02-18T06:50:04;9.50;98.10
54202;DHT22;40108;53.152;5.844;2023-02-18T06:52:33;9.50;98.10
54202;DHT22;40108;53.152;5.844;2023-02-18T06:54:59;9.50;98.10
54202;DHT22;40108;53.152;5.844;2023-02-18T06:57:27;9.50;98.10
54202;DHT22;40108;53.152;5.844;2023-02-18T07:00:03;9.50;98.00
54202;DHT22;40108;53.152;5.844;2023-02-18T07:02:30;9.50;98.10
54202;DHT22;40108;53.152;5.844;2023-02-18T07:04:58;9.50;98.00
54202;DHT22;40108;53.152;5.844;2023-02-18T07:07:29;9.50;98.00
54202;DHT22;40108;53.152;5.844;2023-02-18T07:09:58;9.50;98.00
54202;DHT22;40108;53.152;5.844;2023-02-18T07:12:50;9.50;98.00
54202;DHT22;40108;53.152;5.844;2023-02-18T07:15:25;9.50;98.00
54202;DHT22;40108;53.152;5.844;2023-02-18T07:17:54;9.50;98.00
54202;DHT22;40108;53.152;5.844;2023-02-18T07:20:21;9.50;98.00
54202;DHT22;40108;53.152;5.844;2023-02-18T07:22:53;9.50;97.90
54202;DHT22;40108;53.152;5.844;2023-02-18T07:25:21;9.50;97.90
54202;DHT22;40108;53.152;5.844;2023-02-18T07:27:52;9.50;97.90
54202;DHT22;40108;53.152;5.844;2023-02-18T07:30:19;9.50;97.90
54202;DHT22;40108;53.152;5.844;2023-02-18T07:32:50;9.50;97.80
54202;DHT22;40108;53.152;5.844;2023-02-18T07:35:34;9.50;97.80
54202;DHT22;40108;53.152;5.844;2023-02-18T07:38:02;9.50;97.80
54202;DHT22;40108;53.152;5.844;2023-02-18T07:40:30;9.40;97.70
54202;DHT22;40108;53.152;5.844;2023-02-18T07:42:56;9.50;97.70
54202;DHT22;40108;53.152;5.844;2023-02-18T07:45:24;9.40;97.60
54202;DHT22;40108;53.152;5.844;2023-02-18T07:47:53;9.40;97.60
54202;DHT22;40108;53.152;5.844;2023-02-18T07:50:19;9.40;97.50
54202;DHT22;40108;53.152;5.844;2023-02-18T07:52:49;9.40;97.50
54202;DHT22;40108;53.152;5.844;2023-02-18T07:55:18;9.40;97.40
54202;DHT22;40108;53.152;5.844;2023-02-18T07:58:06;9.40;97.30
54202;DHT22;40108;53.152;5.844;2023-02-18T08:00:39;9.30;97.30
54202;DHT22;40108;53.152;5.844;2023-02-18T08:03:21;9.30;97.20
54202;DHT22;40108;53.152;5.844;2023-02-18T08:05:53;9.30;97.10
54202;DHT22;40108;53.152;5.844;2023-02-18T08:08:26;9.20;97.10
54202;DHT22;40108;53.152;5.844;2023-02-18T08:11:01;9.30;97.10
54202;DHT22;40108;53.152;5.844;2023-02-18T08:13:38;9.30;97.10
54202;DHT22;40108;53.152;5.844;2023-02-18T08:16:06;9.30;97.00
54202;DHT22;40108;53.152;5.844;2023-02-18T08:18:31;9.30;96.90
54202;DHT22;40108;53.152;5.844;2023-02-18T08:20:57;9.30;96.90
54202;DHT22;40108;53.152;5.844;2023-02-18T08:23:26;9.30;96.90
54202;DHT22;40108;53.152;5.844;2023-02-18T08:25:54;9.20;96.80
54202;DHT22;40108;53.152;5.844;2023-02-18T08:28:26;9.30;96.80
54202;DHT22;40108;53.152;5.844;2023-02-18T08:30:54;9.30;96.80
54202;DHT22;40108;53.152;5.844;2023-02-18T08:33:23;9.30;96.80
54202;DHT22;40108;53.152;5.844;2023-02-18T08:35:56;9.20;96.90
54202;DHT22;40108;53.152;5.844;2023-02-18T08:38:31;9.20;96.90
54202;DHT22;40108;53.152;5.844;2023-02-18T08:41:14;9.20;96.90
54202;DHT22;40108;53.152;5.844;2023-02-18T08:44:03;9.20;96.90
54202;DHT22;40108;53.152;5.844;2023-02-18T08:46:37;9.20;97.00
54202;DHT22;40108;53.152;5.844;2023-02-18T08:49:06;9.20;96.90
54202;DHT22;40108;53.152;5.844;2023-02-18T08:51:40;9.20;96.90
54202;DHT22;40108;53.152;5.844;2023-02-18T08:54:11;9.20;96.90
54202;DHT22;40108;53.152;5.844;2023-02-18T08:56:49;9.20;96.90
54202;DHT22;40108;53.152;5.844;2023-02-18T08:59:25;9.20;96.80
54202;DHT22;40108;53.152;5.844;2023-02-18T09:01:52;9.20;96.70
54202;DHT22;40108;53.152;5.844;2023-02-18T09:04:25;9.20;96.70
54202;DHT22;40108;53.152;5.844;2023-02-18T09:06:59;9.30;96.70
54202;DHT22;40108;53.152;5.844;2023-02-18T09:09:27;9.30;96.70
54202;DHT22;40108;53.152;5.844;2023-02-18T09:11:57;9.30;96.70
54202;DHT22;40108;53.152;5.844;2023-02-18T09:14:23;9.30;96.70
54202;DHT22;40108;53.152;5.844;2023-02-18T09:16:57;9.40;96.80
54202;DHT22;40108;53.152;5.844;2023-02-18T09:19:26;9.40;96.80
54202;DHT22;40108;53.152;5.844;2023-02-18T09:21:52;9.30;96.80
54202;DHT22;40108;53.152;5.844;2023-02-18T09:24:21;9.40;96.80
54202;DHT22;40108;53.152;5.844;2023-02-18T09:26:46;9.30;96.80
54202;DHT22;40108;53.152;5.844;2023-02-18T09:29:14;9.30;96.80
54202;DHT22;40108;53.152;5.844;2023-02-18T09:31:48;9.30;96.80
54202;DHT22;40108;53.152;5.844;2023-02-18T09:34:13;9.40;96.80
54202;DHT22;40108;53.152;5.844;2023-02-18T09:36:48;9.40;96.80
54202;DHT22;40108;53.152;5.844;2023-02-18T09:39:17;9.40;96.70
54202;DHT22;40108;53.152;5.844;2023-02-18T09:41:45;9.40;96.60
54202;DHT22;40108;53.152;5.844;2023-02-18T09:44:26;9.40;96.50
54202;DHT22;40108;53.152;5.844;2023-02-18T09:47:16;9.40;96.40
54202;DHT22;40108;53.152;5.844;2023-02-18T09:50:28;9.50;96.30
54202;DHT22;40108;53.152;5.844;2023-02-18T09:52:35;9.60;96.20
54202;DHT22;40108;53.152;5.844;2023-02-18T09:55:37;9.60;96.10
54202;DHT22;40108;53.152;5.844;2023-02-18T09:58:15;9.60;96.00
54202;DHT22;40108;53.152;5.844;2023-02-18T10:00:50;9.70;95.90
54202;DHT22;40108;53.152;5.844;2023-02-18T10:03:24;9.80;95.90
54202;DHT22;40108;53.152;5.844;2023-02-18T10:06:05;9.90;95.70
54202;DHT22;40108;53.152;5.844;2023-02-18T10:08:36;10.00;95.50
54202;DHT22;40108;53.152;5.844;2023-02-18T10:11:03;10.20;95.40
54202;DHT22;40108;53.152;5.844;2023-02-18T10:13:32;10.40;95.30
54202;DHT22;40108;53.152;5.844;2023-02-18T10:15:58;10.60;94.80
54202;DHT22;40108;53.152;5.844;2023-02-18T10:18:31;10.50;94.50
54202;DHT22;40108;53.152;5.844;2023-02-18T10:21:17;10.50;93.70
54202;DHT22;40108;53.152;5.844;2023-02-18T10:24:01;10.60;93.90
54202;DHT22;40108;53.152;5.844;2023-02-18T10:26:30;10.70;93.80
54202;DHT22;40108;53.152;5.844;2023-02-18T10:28:58;10.90;93.50
54202;DHT22;40108;53.152;5.844;2023-02-18T10:31:36;11.20;93.80
54202;DHT22;40108;53.152;5.844;2023-02-18T10:37:10;11.60;92.70
54202;DHT22;40108;53.152;5.844;2023-02-18T10:40:02;11.50;91.50
54202;DHT22;40108;53.152;5.844;2023-02-18T10:49:04;11.50;91.10
54202;DHT22;40108;53.152;5.844;2023-02-18T10:51:38;11.40;90.70
54202;DHT22;40108;53.152;5.844;2023-02-18T10:54:09;11.40;90.40
54202;DHT22;40108;53.152;5.844;2023-02-18T10:56:49;11.30;90.20
54202;DHT22;40108;53.152;5.844;2023-02-18T10:59:22;11.30;90.40
54202;DHT22;40108;53.152;5.844;2023-02-18T11:02:23;11.50;90.90
54202;DHT22;40108;53.152;5.844;2023-02-18T11:05:26;11.70;90.40
54202;DHT22;40108;53.152;5.844;2023-02-18T11:07:59;11.90;89.80
54202;DHT22;40108;53.152;5.844;2023-02-18T11:10:34;12.10;89.30
54202;DHT22;40108;53.152;5.844;2023-02-18T11:13:06;12.20;88.90
54202;DHT22;40108;53.152;5.844;2023-02-18T11:15:35;12.20;88.40
54202;DHT22;40108;53.152;5.844;2023-02-18T11:18:31;12.20;88.10
54202;DHT22;40108;53.152;5.844;2023-02-18T11:21:02;12.20;87.70
54202;DHT22;40108;53.152;5.844;2023-02-18T11:24:19;12.20;87.60
54202;DHT22;40108;53.152;5.844;2023-02-18T11:26:55;12.20;87.60
54202;DHT22;40108;53.152;5.844;2023-02-18T11:35:57;12.20;87.00
54202;DHT22;40108;53.152;5.844;2023-02-18T11:38:56;12.10;86.90
54202;DHT22;40108;53.152;5.844;2023-02-18T11:42:01;12.00;87.00
54202;DHT22;40108;53.152;5.844;2023-02-18T11:44:36;12.00;87.30
54202;DHT22;40108;53.152;5.844;2023-02-18T11:47:18;11.90;87.40
54202;DHT22;40108;53.152;5.844;2023-02-18T11:50:01;11.80;87.60
54202;DHT22;40108;53.152;5.844;2023-02-18T12:01:53;11.90;88.20
54202;DHT22;40108;53.152;5.844;2023-02-18T12:29:47;12.60;86.10
54202;DHT22;40108;53.152;5.844;2023-02-18T12:43:09;11.60;87.30
54202;DHT22;40108;53.152;5.844;2023-02-18T12:49:07;11.40;87.50
54202;DHT22;40108;53.152;5.844;2023-02-18T12:57:16;11.40;88.20
54202;DHT22;40108;53.152;5.844;2023-02-18T13:00:15;11.40;88.20
54202;DHT22;40108;53.152;5.844;2023-02-18T13:11:35;11.40;88.20
54202;DHT22;40108;53.152;5.844;2023-02-18T13:14:19;11.40;88.00
54202;DHT22;40108;53.152;5.844;2023-02-18T13:16:50;11.30;87.90
54202;DHT22;40108;53.152;5.844;2023-02-18T13:19:26;11.30;88.20
54202;DHT22;40108;53.152;5.844;2023-02-18T13:21:57;11.20;88.20
54202;DHT22;40108;53.152;5.844;2023-02-18T13:24:44;11.20;88.40
54202;DHT22;40108;53.152;5.844;2023-02-18T13:32:38;11.20;88.40
54202;DHT22;40108;53.152;5.844;2023-02-18T13:40:27;11.20;88.10
54202;DHT22;40108;53.152;5.844;2023-02-18T13:54:05;11.30;87.90
54202;DHT22;40108;53.152;5.844;2023-02-18T13:56:41;11.30;87.90
54202;DHT22;40108;53.152;5.844;2023-02-18T14:01:48;11.20;87.60
54202;DHT22;40108;53.152;5.844;2023-02-18T14:09:50;11.20;87.90
54202;DHT22;40108;53.152;5.844;2023-02-18T14:12:36;11.10;87.70
54202;DHT22;40108;53.152;5.844;2023-02-18T14:20:30;10.90;88.00
54202;DHT22;40108;53.152;5.844;2023-02-18T14:23:00;10.90;88.10
54202;DHT22;40108;53.152;5.844;2023-02-18T14:25:40;10.90;88.10
54202;DHT22;40108;53.152;5.844;2023-02-18T14:33:59;10.80;87.90
54202;DHT22;40108;53.152;5.844;2023-02-18T14:36:44;10.80;87.80
54202;DHT22;40108;53.152;5.844;2023-02-18T14:47:53;10.70;87.90
54202;DHT22;40108;53.152;5.844;2023-02-18T14:50:20;10.70;87.90
54202;DHT22;40108;53.152;5.844;2023-02-18T14:55:54;10.60;88.00
54202;DHT22;40108;53.152;5.844;2023-02-18T14:58:40;10.60;88.00
54202;DHT22;40108;53.152;5.844;2023-02-18T15:01:21;10.60;88.10
54202;DHT22;40108;53.152;5.844;2023-02-18T15:03:49;10.60;88.10
54202;DHT22;40108;53.152;5.844;2023-02-18T15:06:41;10.50;88.00
54202;DHT22;40108;53.152;5.844;2023-02-18T15:09:20;10.50;88.10
54202;DHT22;40108;53.152;5.844;2023-02-18T15:14:33;10.40;87.90
54202;DHT22;40108;53.152;5.844;2023-02-18T15:17:00;10.40;88.10
54202;DHT22;40108;53.152;5.844;2023-02-18T15:35:19;10.30;88.40
54202;DHT22;40108;53.152;5.844;2023-02-18T16:07:31;10.10;88.90
54202;DHT22;40108;53.152;5.844;2023-02-18T16:12:45;9.90;88.90
54202;DHT22;40108;53.152;5.844;2023-02-18T16:23:40;9.80;89.20
54202;DHT22;40108;53.152;5.844;2023-02-18T16:26:31;9.80;89.20
54202;DHT22;40108;53.152;5.844;2023-02-18T16:32:49;9.70;89.30
54202;DHT22;40108;53.152;5.844;2023-02-18T16:35:51;9.70;89.50
54202;DHT22;40108;53.152;5.844;2023-02-18T16:41:36;9.70;89.70
54202;DHT22;40108;53.152;5.844;2023-02-18T16:44:10;9.60;89.80
54202;DHT22;40108;53.152;5.844;2023-02-18T16:46:45;9.60;89.80
54202;DHT22;40108;53.152;5.844;2023-02-18T16:49:13;9.60;89.90
54202;DHT22;40108;53.152;5.844;2023-02-18T16:58:51;9.50;90.10
54202;DHT22;40108;53.152;5.844;2023-02-18T17:05:07;9.50;90.20
54202;DHT22;40108;53.152;5.844;2023-02-18T17:10:16;9.50;90.30
54202;DHT22;40108;53.152;5.844;2023-02-18T17:15:34;9.40;90.40
54202;DHT22;40108;53.152;5.844;2023-02-18T17:18:26;9.40;90.50
54202;DHT22;40108;53.152;5.844;2023-02-18T17:21:40;9.40;90.50
54202;DHT22;40108;53.152;5.844;2023-02-18T17:24:32;9.40;90.60
54202;DHT22;40108;53.152;5.844;2023-02-18T17:27:00;9.40;90.70
54202;DHT22;40108;53.152;5.844;2023-02-18T17:29:35;9.30;90.80
54202;DHT22;40108;53.152;5.844;2023-02-18T17:32:04;9.30;90.80
54202;DHT22;40108;53.152;5.844;2023-02-18T17:34:36;9.30;90.80
54202;DHT22;40108;53.152;5.844;2023-02-18T17:37:28;9.30;91.00
54202;DHT22;40108;53.152;5.844;2023-02-18T17:40:02;9.30;91.00
54202;DHT22;40108;53.152;5.844;2023-02-18T17:42:36;9.30;91.10
54202;DHT22;40108;53.152;5.844;2023-02-18T17:45:17;9.20;91.20
54202;DHT22;40108;53.152;5.844;2023-02-18T17:47:46;9.20;91.50
54202;DHT22;40108;53.152;5.844;2023-02-18T17:50:35;9.20;91.70
54202;DHT22;40108;53.152;5.844;2023-02-18T17:53:11;9.20;91.70
54202;DHT22;40108;53.152;5.844;2023-02-18T17:55:41;9.20;91.90
54202;DHT22;40108;53.152;5.844;2023-02-18T17:58:13;9.20;92.00
54202;DHT22;40108;53.152;5.844;2023-02-18T18:00:56;9.20;92.30
54202;DHT22;40108;53.152;5.844;2023-02-18T18:03:25;9.20;92.30
54202;DHT22;40108;53.152;5.844;2023-02-18T18:05:53;9.10;92.30
54202;DHT22;40108;53.152;5.844;2023-02-18T18:08:23;9.20;92.40
54202;DHT22;40108;53.152;5.844;2023-02-18T18:10:54;9.10;92.50
54202;DHT22;40108;53.152;5.844;2023-02-18T18:13:32;9.10;92.60
54202;DHT22;40108;53.152;5.844;2023-02-18T18:16:09;9.10;92.70
54202;DHT22;40108;53.152;5.844;2023-02-18T18:18:48;9.10;92.70
54202;DHT22;40108;53.152;5.844;2023-02-18T18:21:28;9.00;92.80
54202;DHT22;40108;53.152;5.844;2023-02-18T18:23:54;9.00;92.80
54202;DHT22;40108;53.152;5.844;2023-02-18T18:26:23;9.00;92.90
54202;DHT22;40108;53.152;5.844;2023-02-18T18:32:05;8.90;92.80
54202;DHT22;40108;53.152;5.844;2023-02-18T18:34:31;8.90;92.80
54202;DHT22;40108;53.152;5.844;2023-02-18T18:37:03;8.90;92.80
54202;DHT22;40108;53.152;5.844;2023-02-18T18:39:49;8.90;92.80
54202;DHT22;40108;53.152;5.844;2023-02-18T18:42:15;8.90;92.90
54202;DHT22;40108;53.152;5.844;2023-02-18T18:44:43;8.80;92.90
54202;DHT22;40108;53.152;5.844;2023-02-18T18:47:35;8.80;92.90
54202;DHT22;40108;53.152;5.844;2023-02-18T18:50:03;8.80;92.90
54202;DHT22;40108;53.152;5.844;2023-02-18T18:52:32;8.80;93.00
54202;DHT22;40108;53.152;5.844;2023-02-18T18:55:34;8.80;92.90
54202;DHT22;40108;53.152;5.844;2023-02-18T18:58:02;8.70;92.90
54202;DHT22;40108;53.152;5.844;2023-02-18T19:00:40;8.70;93.00
54202;DHT22;40108;53.152;5.844;2023-02-18T19:03:21;8.80;93.10
54202;DHT22;40108;53.152;5.844;2023-02-18T19:14:14;8.70;93.10
54202;DHT22;40108;53.152;5.844;2023-02-18T19:16:49;8.70;93.10
54202;DHT22;40108;53.152;5.844;2023-02-18T19:19:15;8.60;93.10
54202;DHT22;40108;53.152;5.844;2023-02-18T19:24:20;8.60;93.20
54202;DHT22;40108;53.152;5.844;2023-02-18T19:27:03;8.60;93.20
54202;DHT22;40108;53.152;5.844;2023-02-18T19:32:16;8.60;93.30
54202;DHT22;40108;53.152;5.844;2023-02-18T19:34:42;8.50;93.30
54202;DHT22;40108;53.152;5.844;2023-02-18T19:37:09;8.50;93.30
54202;DHT22;40108;53.152;5.844;2023-02-18T19:39:35;8.50;93.30
54202;DHT22;40108;53.152;5.844;2023-02-18T19:42:08;8.50;93.40
54202;DHT22;40108;53.152;5.844;2023-02-18T19:44:36;8.50;93.40
54202;DHT22;40108;53.152;5.844;2023-02-18T19:47:05;8.50;93.40
54202;DHT22;40108;53.152;5.844;2023-02-18T19:49:31;8.50;93.50
54202;DHT22;40108;53.152;5.844;2023-02-18T19:52:01;8.50;93.40
54202;DHT22;40108;53.152;5.844;2023-02-18T19:54:41;8.40;93.50
54202;DHT22;40108;53.152;5.844;2023-02-18T19:57:13;8.50;93.60
54202;DHT22;40108;53.152;5.844;2023-02-18T20:00:00;8.50;93.50
54202;DHT22;40108;53.152;5.844;2023-02-18T20:02:29;8.50;93.50
54202;DHT22;40108;53.152;5.844;2023-02-18T20:05:13;8.40;93.60
54202;DHT22;40108;53.152;5.844;2023-02-18T20:07:55;8.50;93.70
54202;DHT22;40108;53.152;5.844;2023-02-18T20:11:00;8.40;93.70
54202;DHT22;40108;53.152;5.844;2023-02-18T20:13:46;8.40;93.80
54202;DHT22;40108;53.152;5.844;2023-02-18T20:16:12;8.40;93.90
54202;DHT22;40108;53.152;5.844;2023-02-18T20:18:38;8.40;93.90
54202;DHT22;40108;53.152;5.844;2023-02-18T20:21:13;8.40;94.00
54202;DHT22;40108;53.152;5.844;2023-02-18T20:24:02;8.40;94.10
54202;DHT22;40108;53.152;5.844;2023-02-18T20:26:43;8.40;94.20
54202;DHT22;40108;53.152;5.844;2023-02-18T20:29:09;8.40;94.20
54202;DHT22;40108;53.152;5.844;2023-02-18T20:31:38;8.50;94.40
54202;DHT22;40108;53.152;5.844;2023-02-18T20:34:04;8.50;94.60
54202;DHT22;40108;53.152;5.844;2023-02-18T20:39:12;8.50;94.70
54202;DHT22;40108;53.152;5.844;2023-02-18T20:42:27;8.60;94.80
54202;DHT22;40108;53.152;5.844;2023-02-18T20:45:02;8.60;94.80
54202;DHT22;40108;53.152;5.844;2023-02-18T20:47:30;8.60;94.90
54202;DHT22;40108;53.152;5.844;2023-02-18T20:53:04;8.70;94.90
54202;DHT22;40108;53.152;5.844;2023-02-18T20:55:32;8.70;95.10
54202;DHT22;40108;53.152;5.844;2023-02-18T20:58:04;8.70;95.10
54202;DHT22;40108;53.152;5.844;2023-02-18T21:00:37;8.70;95.10